Seguin, TX (78155)

8:57 AM CDT on July 25, 2017 (GMT -0500)
Las Brisas | | Change Station

Elev 568 ft 29.62 °N, 98.05 °W | Updated 1 second ago

Mostly Cloudy
Mostly Cloudy
79.8 °F
Feels Like 85 °F
N
1.2
Wind Variable Wind from NW
Gusts 1.2 mph

Today
High -- | Low -- °F
--% Chance of Precip.
Yesterday
High -- | Low -- °F
Precip. -- in
Pressure 30.06 in
Visibility 9.0 miles
Clouds Mostly Cloudy 800 ft
Overcast 2200 ft
Heat Index 85 °F
Dew Point 76 °F
Humidity 89%
Rainfall 0.00 in
Snow Depth Not available.
6:47 AM 8:28 PM
Waxing Crescent, 6% visible
METAR KBAZ 251351Z 17011KT 9SM BKN008 OVC022 27/24 A3009 RMK AO2 SLP179 T02720239
Pressure 30.06 in
Visibility 9.0 miles
Clouds Mostly Cloudy 800 ft
Overcast 2200 ft
Heat Index 85 °F
Dew Point 76 °F
Humidity 89%
Rainfall 0.00 in
Snow Depth Not available.
6:47 AM 8:28 PM
Waxing Crescent, 6% visible
METAR KBAZ 251351Z 17011KT 9SM BKN008 OVC022 27/24 A3009 RMK AO2 SLP179 T02720239

Get Severe Weather Alerts

Thanks for signing up!

Be on the lookout for a verification email in your inbox.

You'll start receiving the daily forecast at 6 AM.

×

10-Day Weather Forecast

Almanac

Astronomy

Jul. 25, 2017 Rise Set
Actual Time
Civil Twilight
Nautical Twilight
Astronomical Twilight
Moon
Length of Visible Light
Length of Day
Tomorrow will be .
, % of the Moon is Illuminated

Today's Extremes

State Highs State Lows

Community

WunderPhotos

Category 6

Welcome to Category 6. This is the collective home for Weather Underground's featured writeups by Dr. Jeff Masters (right), Bob Henson (left), Chris Burt, and other regular contributors.

Nearby

Air Quality

  Air Quality AQ Index Pollutant
Not available.

Snow Depth

Station Depth Elevation

Earthquake Activity

City Distance Mag. Time & Date
Minimum magnitude displayed is 2.5.

Coastal Water Temperatures

Place Temperature

Stations

Nearby Weather Stations

Station Location Temp. Windchill Dew Point Humidity Wind Precip. Elev Updated Type
                   

Watches & Warnings

There are currently no watches in effect.